North Syracuse, New York
Current Conditions -  °F | °C
As of 12:54 PM on Saturday 25 Oct 2014 (Local Time) from KSYR Reporting Station
Scattered Clouds Scattered Clouds  
Wind Chill: 65°   Ceiling: Unl
Heat Index: 65°   Visibility: 10mi
Dew Point: 47°   Wind: 15mph
Humidity: 52%   Direction: 220°SW
Pressure: 29.68"   Gusts: NA
Location:  43.1273°N, 76.1307°W
Report Text: KSYR 251654Z 22013KT 10SM SCT040 SCT110 18/08 A2968 RMK AO2 SLP047 T01830083
Loading
Personal Weather Stations






























Interactive Weather Map
Tropical Storm Tracking
New forecast layout! Learn more

10-Day Weather Forecast

Advertisements
Track Severe Weather on mobile